Portada
METAR-TAF:

METAR-TAF

Aeroports :

Munda, New Georgia, Illes Salomó

latitud: 8-19-41S, longitud: 157-15-47E, altitud: 3 m

Observació

L'informe es va fer fa 12 hores i 12 minuts, a les 05:00 UTC
Vent 5 kt del Est
Temperatura 29°C
Humitat 79%
Pressió 1009 hPa
Visibilitat 10 km o més
Núvols disperses a una alçada de 1700 ft
Escasses núvols a una alçada de 1800 ft, Cumulonimbus.
Cel ennuvolat a una alçada de 10000 ft

METAR: AGGM 260500Z 09005KT 9999 SCT017 FEW018CB BKN100 29/25 Q1009

Hora: 04:12 (17:12 UTC)

Pronòstic

L'informe es va fer fa 5 hores i 57 minuts, a les 11:15 UTC
Pronòstic vàlid del 26 a les 12 UTC al 27 a les 12 UTC
Vent 3 kt amb direcció variable
Visibilitat: 1011 m
Escasses núvols a una alçada de 1600 ft
Cel ennuvolat a una alçada de 10000 ft
Cel ennuvolat a una alçada de 1600 ft
Escasses núvols a una alçada de 1700 ft, Cumulonimbus.
xàfecs de pluja

TAF: AGGM 261115Z 2612/2712 VRB03KT 9999 -SHRA FEW016 BKN100 INTER 2612/2618 5000 TSSH BKN016 FEW017CB Q 1012 1010 1009 1011

Observacions i pronòstics meteorològics de més de 4000 aeroports (METAR i TAF).

Les estacions disponibles són els punts grocs i vermells al mapa.

Posi el ratolí al punt desitjat per veure el nom de l'estació.

Feu clic per veure les observacions i els pronòstics meteorològics.

Per canviar el mapa: feu clic els botons verds amb una creu de color negre per apropar; al botó verd amb un guió per allunyar la imatge; o en les fletxes verdes per a mapes adjacents.


METAR-TAF: